Terminal Aerodrome Forecast
Issued by NWS Mt. Holly, NJ

Current Version | Previous Version | Text Only | Print | Product List | Glossary On
Versions: 1 2 3 4 5 6 7 8 9 10 11 12 13 14 15 16 17 18 19 20 21 22 23
000
FTUS41 KPHI 011700
TAFPHL
TAF
KPHL 011720Z 0118/0224 04008KT P6SM BKN040
      TEMPO 0122/0202 BKN030
     FM020200 36006KT P6SM BKN025
     FM021500 02009KT P6SM BKN030
     FM021700 36010KT P6SM BKN035=

USA.gov is the U.S. government's official web portal to all federal, state and local government web resources and services.